Thunder radar more information blitzortung!


Radar de pluja more information rain snow radar


Visita la nostra xarxa de llocs de meteo:

Template documentation
and downloads

And another site



No particular awareness of the weather is required.    There are no Weather-warnings

Pagina Historial Weather Underground text

Diari Resum Desembre 6, 2017 Unitats:  Imperial    Mètric   Tant
« Previous Dia
SegĂźent Dia »
Diari Setmana Mensual Anual Personalitzada
  Maxima: Minima: Media:
Temperatura: 57.2 °F 31.3 °F 44.1 °F
Punt de rosada: 40.5 °F 21.6 °F 32 °F
Humitat: 75 % 52 % 63 %
Wind Speed: 6.9 mph 0 mph 1.7 mph
RĂ fegues de vent: 6.9 mph - -
Vent:- - South
Pression baro: 30.6 in 30.4 in -
Precipitacions: 0 in    
Historical Graphs
 
 
Dades de taula per Desembre 6, 2017
Temps Temperatura Punt de rosada Pression baro Vent Wind Speed RĂ fegues de vent Humitat Rainfall Rate (Hourly)
00:01 36.9 °F 23.4 °F 30.6 in Calm     58 % 0 in
00:05 32.2 °F 22.1 °F 30.5 in Calm   2 mph 66 % 0 in
00:06 36.7 °F 23.7 °F 30.6 in Calm     59 % 0 in
00:11 36.7 °F 23.7 °F 30.6 in Calm     59 % 0 in
00:15 32 °F 21.6 °F 30.5 in WSW 1 mph 2 mph 65 % 0 in
00:25 32 °F 21.9 °F 30.5 in WSW 1 mph 2 mph 66 % 0 in
00:35 32 °F 21.9 °F 30.5 in WSW 1 mph 2 mph 66 % 0 in
00:45 32 °F 21.9 °F 30.5 in WSW 1 mph 2 mph 66 % 0 in
00:55 32 °F 22.3 °F 30.6 in Calm   1 mph 67 % 0 in
01:05 32 °F 22.3 °F 30.6 in Calm   1 mph 67 % 0 in
01:15 31.8 °F 22.1 °F 30.6 in Calm     67 % 0 in
01:25 31.8 °F 22.1 °F 30.6 in Calm     67 % 0 in
01:35 31.8 °F 22.5 °F 30.6 in Calm     68 % 0 in
01:45 31.6 °F 21.9 °F 30.6 in SW 1 mph 2 mph 67 % 0 in
01:55 31.3 °F 21.6 °F 30.6 in Calm   2 mph 67 % 0 in
02:05 31.5 °F 22.1 °F 30.6 in Calm     68 % 0 in
02:15 31.3 °F 21.9 °F 30.6 in Calm   1 mph 68 % 0 in
02:25 31.5 °F 22.1 °F 30.6 in Calm     68 % 0 in
02:35 32 °F 22.3 °F 30.6 in West 1 mph 2 mph 67 % 0 in
02:45 32.2 °F 22.8 °F 30.6 in WSW 1 mph 2 mph 68 % 0 in
02:55 32.7 °F 23 °F 30.6 in WSW 1 mph 2 mph 67 % 0 in
03:05 33.4 °F 23.7 °F 30.6 in SW 1 mph 2 mph 67 % 0 in
03:15 35.2 °F 25.7 °F 30.6 in Calm     68 % 0 in
03:25 36.5 °F 26.6 °F 30.6 in Calm   1 mph 67 % 0 in
03:35 37.4 °F 27.1 °F 30.6 in Calm     66 % 0 in
03:45 37.8 °F 26.8 °F 30.6 in SW 1 mph 1 mph 64 % 0 in
03:55 38.8 °F 27.7 °F 30.6 in Calm   2 mph 64 % 0 in
04:05 38.3 °F 26.8 °F 30.6 in ESE 1 mph 2 mph 63 % 0 in
04:15 39.4 °F 27.9 °F 30.6 in East 1 mph 2 mph 63 % 0 in
04:35 40.5 °F 28.6 °F 30.6 in SSE 1 mph 2 mph 62 % 0 in
04:45 40.8 °F 28.4 °F 30.6 in ESE 2 mph 2 mph 61 % 0 in
04:55 41.2 °F 27.9 °F 30.6 in ENE 2 mph 3 mph 59 % 0 in
05:05 41.9 °F 28.2 °F 30.6 in ENE 1 mph 2 mph 58 % 0 in
11:08 42.3 °F 28.6 °F 30.6 in NNW 2 mph 2 mph 58 % 0 in
11:13 42.8 °F 28.9 °F 30.6 in NE 2.3 mph 2.3 mph 58 % 0 in
11:18 43 °F 28.8 °F 30.6 in NE 4.6 mph 4.6 mph 57 % 0 in
11:19 43 °F 28.8 °F 30.6 in NE 3.5 mph 3.5 mph 57 % 0 in
11:24 43.2 °F 28.9 °F 30.6 in ENE 2.6 mph 2.6 mph 57 % 0 in
11:29 43.5 °F 28.8 °F 30.6 in NE 2.6 mph 2.6 mph 56 % 0 in
11:34 43.9 °F 29.1 °F 30.6 in ENE 2.3 mph 2.3 mph 56 % 0 in
11:39 44.4 °F 29.7 °F 30.6 in ENE 2.6 mph 2.6 mph 56 % 0 in
11:44 45 °F 30.2 °F 30.5 in East 2.3 mph 2.3 mph 56 % 0 in
11:49 45.1 °F 30.4 °F 30.5 in NNE 2.3 mph 2.3 mph 56 % 0 in
11:59 45.9 °F 30.6 °F 30.5 in East 2.3 mph 2.3 mph 55 % 0 in
12:04 46.6 °F 31.3 °F 30.5 in ENE 1.6 mph 1.6 mph 55 % 0 in
12:09 46.8 °F 31.5 °F 30.5 in ENE 2.3 mph 2.3 mph 55 % 0 in
12:14 46.8 °F 30.9 °F 30.5 in East 2.3 mph 2.3 mph 54 % 0 in
12:19 47.3 °F 31.5 °F 30.5 in ENE 2.3 mph 2.3 mph 54 % 0 in
12:24 47.7 °F 31.8 °F 30.5 in NNW 1.2 mph 1.2 mph 54 % 0 in
12:29 47.7 °F 31.5 °F 30.5 in NE 3.5 mph 3.5 mph 53 % 0 in
12:34 47.8 °F 31.5 °F 30.5 in NE 2.3 mph 2.3 mph 53 % 0 in
12:39 48.6 °F 32.2 °F 30.5 in NNW 2.3 mph 2.3 mph 53 % 0 in
12:44 48.7 °F 32.4 °F 30.5 in NNE 2.4 mph 2.4 mph 53 % 0 in
12:49 49.1 °F 32.7 °F 30.5 in ENE 2.3 mph 2.3 mph 53 % 0 in
12:54 49.3 °F 32.9 °F 30.5 in NE 1.6 mph 1.6 mph 53 % 0 in
12:59 49.6 °F 33.3 °F 30.5 in ENE 2.3 mph 2.3 mph 53 % 0 in
13:04 50 °F 33.4 °F 30.5 in NE 4.6 mph 4.6 mph 53 % 0 in
13:09 50.5 °F 34 °F 30.5 in NNE 3.5 mph 3.5 mph 53 % 0 in
13:14 50.7 °F 34.2 °F 30.5 in ENE 2.3 mph 2.3 mph 53 % 0 in
13:19 51.3 °F 34.2 °F 30.5 in ENE 2.3 mph 2.3 mph 52 % 0 in
13:24 51.3 °F 34.2 °F 30.5 in ENE 3.1 mph 3.1 mph 52 % 0 in
13:29 51.3 °F 34.2 °F 30.5 in SE 2.3 mph 2.3 mph 52 % 0 in
13:34 51.8 °F 35.2 °F 30.5 in NNW 2.3 mph 2.3 mph 53 % 0 in
13:39 52 °F 34.9 °F 30.5 in North 3.5 mph 3.5 mph 52 % 0 in
13:44 52 °F 35.4 °F 30.5 in North 2.4 mph 2.4 mph 53 % 0 in
13:49 52.2 °F 35.1 °F 30.5 in NNE 2.3 mph 2.3 mph 52 % 0 in
13:54 52.5 °F 35.4 °F 30.5 in NNE 2.3 mph 2.3 mph 52 % 0 in
13:59 52.5 °F 35.4 °F 30.5 in NNW 1.2 mph   52 % 0 in
14:04 52.9 °F 36.1 °F 30.5 in ESE 2.3 mph 2.3 mph 53 % 0 in
14:09 53.4 °F 37.2 °F 30.5 in SW 3.3 mph   54 % 0 in
14:14 53.6 °F 37.2 °F 30.5 in WSW 4.6 mph 4.6 mph 54 % 0 in
14:19 54 °F 37.8 °F 30.5 in SSW 3.5 mph 3.5 mph 54 % 0 in
14:24 54.1 °F 37.8 °F 30.5 in WSW 2.3 mph 2.3 mph 54 % 0 in
14:29 54.5 °F 38.1 °F 30.5 in NW 4.6 mph 4.6 mph 54 % 0 in
14:34 54.7 °F 38.5 °F 30.5 in WSW 4.6 mph 4.6 mph 54 % 0 in
14:39 55 °F 38.7 °F 30.5 in NW 3.5 mph 3.5 mph 54 % 0 in
14:44 55 °F 38.7 °F 30.5 in SSE 2.3 mph 2.9 mph 54 % 0 in
14:49 55.2 °F 38.8 °F 30.5 in SSW 5.6 mph 5.6 mph 54 % 0 in
14:54 55 °F 38.1 °F 30.5 in SW 2.3 mph 2.3 mph 53 % 0 in
14:59 54.9 °F 37.9 °F 30.5 in ENE 2.3 mph 2.9 mph 53 % 0 in
15:04 55.2 °F 38.5 °F 30.5 in ESE 3.6 mph 3.6 mph 53 % 0 in
15:09 54.9 °F 37.9 °F 30.5 in NE 2.3 mph 2.3 mph 53 % 0 in
15:14 55.9 °F 39 °F 30.5 in WNW 3.5 mph 3.5 mph 53 % 0 in
15:19 56.5 °F 39.6 °F 30.5 in West 5.8 mph 5.8 mph 53 % 0 in
15:24 57 °F 39.9 °F 30.5 in SSW 5.8 mph 5.8 mph 53 % 0 in
15:29 57.2 °F 40.3 °F 30.5 in SSW 4.6 mph 4.6 mph 53 % 0 in
15:34 57.2 °F 40.3 °F 30.5 in South 4.6 mph 4.6 mph 53 % 0 in
15:39 57.2 °F 40.3 °F 30.5 in SSW 3.6 mph 3.6 mph 53 % 0 in
15:44 56.8 °F 39.9 °F 30.4 in SSW 6.9 mph 6.9 mph 53 % 0 in
15:49 56.7 °F 39.7 °F 30.4 in SW 5.8 mph 5.8 mph 53 % 0 in
15:54 56.8 °F 40.5 °F 30.4 in SSW 4.6 mph 4.6 mph 54 % 0 in
15:59 56.8 °F 40.5 °F 30.4 in SSW 2.3 mph 2.3 mph 54 % 0 in
16:04 56.8 °F 40.5 °F 30.4 in WSW 4.6 mph 4.6 mph 54 % 0 in
16:09 56.7 °F 40.3 °F 30.4 in SW 4.7 mph 4.7 mph 54 % 0 in
16:14 56.5 °F 39.9 °F 30.4 in SW 4.6 mph 4.6 mph 54 % 0 in
16:19 56.3 °F 39.4 °F 30.4 in South 5.8 mph 5.8 mph 53 % 0 in
16:24 55.9 °F 39 °F 30.4 in WSW 5.8 mph 5.8 mph 53 % 0 in
16:29 55.9 °F 39 °F 30.4 in SW 3.5 mph 3.5 mph 53 % 0 in
16:34 55.8 °F 39.4 °F 30.4 in SW 3.5 mph 3.5 mph 54 % 0 in
16:39 55.6 °F 39.2 °F 30.4 in SSW 5.8 mph 5.8 mph 54 % 0 in
16:44 55.4 °F 39 °F 30.4 in SW 3.5 mph 3.5 mph 54 % 0 in
16:49 55.2 °F 38.8 °F 30.4 in SSW 3.5 mph 3.5 mph 54 % 0 in
16:54 54.9 °F 38.5 °F 30.4 in WSW 3.5 mph 3.5 mph 54 % 0 in
16:59 54.7 °F 38.5 °F 30.4 in SW 5.8 mph 5.8 mph 54 % 0 in
17:04 54.1 °F 37.8 °F 30.4 in SSW 4.3 mph 4.3 mph 54 % 0 in
17:09 53.8 °F 37.6 °F 30.4 in SW 4.6 mph 4.6 mph 54 % 0 in
17:14 53.2 °F 37 °F 30.4 in West 3.5 mph 3.5 mph 54 % 0 in
17:19 53.1 °F 36.9 °F 30.4 in SSW 2.6 mph 2.6 mph 54 % 0 in
17:24 52.7 °F 36.5 °F 30.4 in WSW 2.3 mph 2.3 mph 54 % 0 in
17:29 52.3 °F 36.7 °F 30.4 in SW 4.6 mph 4.6 mph 55 % 0 in
17:34 52 °F 36.3 °F 30.4 in WSW 2.3 mph 2.3 mph 55 % 0 in
17:39 51.6 °F 36 °F 30.4 in SW 3.5 mph 3.5 mph 55 % 0 in
17:44 51.4 °F 35.8 °F 30.4 in SW 2.3 mph 2.3 mph 55 % 0 in
17:49 51.1 °F 36 °F 30.4 in WSW 2.3 mph 2.3 mph 56 % 0 in
17:54 50.7 °F 35.6 °F 30.4 in West 1.2 mph 1.2 mph 56 % 0 in
17:59 50.5 °F 36 °F 30.4 in WSW 1.2 mph 1.2 mph 57 % 0 in
18:04 50.2 °F 35.4 °F 30.4 in WSW 1.6 mph 1.6 mph 57 % 0 in
18:09 50 °F 35.8 °F 30.4 in WSW 1.2 mph 1.4 mph 58 % 0 in
18:15 37.2 °F 28.8 °F 30.5 in Calm   1 mph 71 % 0 in
18:19 49.5 °F 35.8 °F 30.4 in WSW 1.2 mph   59 % 0 in
18:24 49.1 °F 35.8 °F 30.4 in WSW 1.2 mph   60 % 0 in
18:25 37 °F 28.6 °F 30.5 in NNE 1 mph 1 mph 71 % 0 in
18:29 48.9 °F 35.6 °F 30.4 in WSW 1.2 mph   60 % 0 in
18:34 48.6 °F 35.8 °F 30.4 in Calm     61 % 0 in
18:35 37 °F 28.8 °F 30.5 in NNE 1 mph 2 mph 72 % 0 in
18:39 48.4 °F 36 °F 30.4 in West 1.2 mph 1.2 mph 62 % 0 in
18:44 48.2 °F 35.8 °F 30.4 in WSW 1.6 mph 1.6 mph 62 % 0 in
18:45 36.9 °F 28.8 °F 30.5 in Calm   2 mph 72 % 0 in
18:49 48 °F 36 °F 30.4 in Calm     63 % 0 in
18:54 47.7 °F 35.8 °F 30.4 in WSW 2.3 mph 2.3 mph 63 % 0 in
18:55 36.7 °F 28.6 °F 30.5 in Calm     72 % 0 in
18:59 47.8 °F 36.1 °F 30.4 in SW 2.3 mph 2.3 mph 64 % 0 in
19:04 47.7 °F 36.1 °F 30.4 in WSW 2.2 mph 2.2 mph 64 % 0 in
19:05 36.1 °F 27.7 °F 30.5 in NNW 1 mph 2 mph 71 % 0 in
19:09 47.7 °F 36.1 °F 30.4 in SW 1.2 mph 1.2 mph 64 % 0 in
19:14 47.7 °F 36.1 °F 30.4 in SW 2.3 mph 2.3 mph 64 % 0 in
19:15 36 °F 27.5 °F 30.5 in Calm   1 mph 71 % 0 in
19:19 47.5 °F 36.3 °F 30.4 in WSW 1.2 mph 1.2 mph 65 % 0 in
19:24 47.3 °F 36.1 °F 30.4 in WSW 2.3 mph 2.3 mph 65 % 0 in
19:25 36 °F 27.5 °F 30.4 in WNW 1 mph 2 mph 71 % 0 in
19:29 47.3 °F 36.1 °F 30.5 in WSW 1.2 mph 1.2 mph 65 % 0 in
19:34 47.1 °F 36.3 °F 30.5 in Calm     66 % 0 in
19:35 36 °F 27.9 °F 30.5 in Calm   2 mph 72 % 0 in
19:39 46.9 °F 36.1 °F 30.5 in West 1.4 mph 1.4 mph 66 % 0 in
19:44 46.8 °F 36.3 °F 30.5 in Calm     67 % 0 in
19:45 36 °F 27.9 °F 30.5 in WSW 1 mph 2 mph 72 % 0 in
19:49 46.6 °F 36.1 °F 30.5 in SW 1.2 mph 1.2 mph 67 % 0 in
19:54 46.4 °F 36 °F 30.5 in WSW 1.2 mph 1.2 mph 67 % 0 in
19:55 35.8 °F 27.7 °F 30.4 in Calm   1 mph 72 % 0 in
19:59 46.4 °F 36 °F 30.5 in West 1.6 mph 1.6 mph 67 % 0 in
20:04 46.2 °F 36 °F 30.5 in West 2.3 mph 2.3 mph 67 % 0 in
20:05 36 °F 27.9 °F 30.4 in Calm     72 % 0 in
20:09 45.9 °F 34.9 °F 30.5 in West 2.4 mph 2.6 mph 65 % 0 in
20:14 45.9 °F 34.9 °F 30.5 in WSW 2.3 mph 2.3 mph 65 % 0 in
20:15 36 °F 27.5 °F 30.4 in West 1 mph 1 mph 71 % 0 in
20:19 45.9 °F 34.9 °F 30.5 in West 1.2 mph   65 % 0 in
20:24 45.5 °F 34.9 °F 30.5 in WSW 2.3 mph   66 % 0 in
20:25 36 °F 27.9 °F 30.4 in Calm     72 % 0 in
20:29 45.3 °F 34.5 °F 30.5 in Calm     66 % 0 in
20:34 45 °F 34.3 °F 30.5 in ENE 2 mph 2 mph 66 % 0 in
20:35 36 °F 28 °F 30.4 in Calm     73 % 0 in
20:39 44.4 °F 34.2 °F 30.5 in Calm     67 % 0 in
20:44 43.9 °F 33.6 °F 30.5 in ENE 2.3 mph 2.3 mph 67 % 0 in
20:45 36.3 °F 28.6 °F 30.4 in Calm     73 % 0 in
20:49 43.7 °F 33.4 °F 30.5 in Calm     67 % 0 in
20:54 43.7 °F 33.8 °F 30.5 in ENE 1.2 mph 1.2 mph 68 % 0 in
20:55 36.5 °F 28.9 °F 30.4 in Calm   2 mph 74 % 0 in
20:59 43.5 °F 33.6 °F 30.5 in ENE 2.3 mph 2.3 mph 68 % 0 in
21:04 43.3 °F 33.4 °F 30.5 in Calm     68 % 0 in
21:05 36.3 °F 28.6 °F 30.4 in Calm   1 mph 73 % 0 in
21:09 42.8 °F 33.1 °F 30.5 in WSW 2.4 mph   68 % 0 in
21:14 42.4 °F 32.4 °F 30.5 in West 1.2 mph   67 % 0 in
21:15 36.1 °F 28.6 °F 30.4 in Calm     74 % 0 in
21:19 42.1 °F 31.8 °F 30.5 in West 1.4 mph 1.4 mph 67 % 0 in
21:24 41.9 °F 31.6 °F 30.5 in Calm     67 % 0 in
21:25 36 °F 28 °F 30.4 in WNW 2 mph 2 mph 73 % 0 in
21:29 41.5 °F 31.8 °F 30.5 in Calm     68 % 0 in
21:34 41.4 °F 31.3 °F 30.5 in Calm     67 % 0 in
21:35 35.8 °F 28 °F 30.4 in Calm   2 mph 73 % 0 in
21:39 41 °F 30.9 °F 30.5 in Calm     67 % 0 in
21:44 41 °F 30.9 °F 30.5 in Calm     67 % 0 in
21:45 36.1 °F 28.2 °F 30.4 in NW 1 mph 1 mph 73 % 0 in
21:49 41.2 °F 30.9 °F 30.5 in West 1.2 mph 1.2 mph 67 % 0 in
21:51 41.2 °F 30.9 °F 30.5 in West 1.2 mph   67 % 0 in
21:55 36 °F 28.6 °F 30.4 in Calm   1 mph 74 % 0 in
21:56 41.2 °F 30.9 °F 30.5 in Calm     67 % 0 in
22:01 41.4 °F 31.6 °F 30.5 in Calm     68 % 0 in
22:05 35.8 °F 28.2 °F 30.4 in Calm     74 % 0 in
22:06 41.4 °F 31.8 °F 30.5 in WNW 1.6 mph 1.6 mph 69 % 0 in
22:11 41 °F 31.6 °F 30.5 in ENE 2.3 mph 2.3 mph 69 % 0 in
22:15 35.8 °F 28.2 °F 30.4 in Calm   1 mph 74 % 0 in
22:16 40.8 °F 31.5 °F 30.5 in ENE 1.6 mph   69 % 0 in
22:21 40.5 °F 31.1 °F 30.5 in Calm     69 % 0 in
22:25 35.6 °F 28 °F 30.4 in Calm     74 % 0 in
22:26 40.5 °F 31.5 °F 30.5 in ENE 1.4 mph   70 % 0 in
22:31 40.3 °F 31.3 °F 30.5 in Calm     70 % 0 in
22:35 35.2 °F 27.9 °F 30.4 in SW 1 mph 2 mph 74 % 0 in
22:36 40.1 °F 31.1 °F 30.5 in Calm     70 % 0 in
22:41 40.1 °F 31.1 °F 30.5 in East 2.2 mph 2.2 mph 70 % 0 in
22:45 35.2 °F 27.9 °F 30.4 in NE 1 mph 2 mph 74 % 0 in
22:46 39.9 °F 30.9 °F 30.5 in ENE 1.6 mph 1.6 mph 70 % 0 in
22:51 39.7 °F 31.1 °F 30.5 in East 2.3 mph 2.3 mph 71 % 0 in
22:55 35.1 °F 27.9 °F 30.4 in NE 1 mph 2 mph 75 % 0 in
22:56 39.4 °F 30.4 °F 30.5 in East 1.2 mph   70 % 0 in
23:01 39.2 °F 30.2 °F 30.5 in Calm     70 % 0 in
23:02 39.2 °F 30.2 °F 30.5 in Calm     70 % 0 in
23:05 35.1 °F 27.9 °F 30.4 in Calm     75 % 0 in
23:07 38.8 °F 29.8 °F 30.5 in Calm     70 % 0 in
23:12 38.7 °F 29.7 °F 30.5 in Calm     70 % 0 in
23:15 34.7 °F 27.7 °F 30.4 in Calm     75 % 0 in
23:17 38.5 °F 29.5 °F 30.5 in Calm     70 % 0 in
23:22 38.3 °F 29.5 °F 30.5 in Calm     70 % 0 in
23:25 34.5 °F 27.3 °F 30.4 in Calm     75 % 0 in
23:27 38.1 °F 29.5 °F 30.5 in Calm     71 % 0 in
23:32 38.1 °F 29.5 °F 30.5 in Calm     71 % 0 in
23:35 34.7 °F 27.7 °F 30.4 in Calm     75 % 0 in
23:37 38.1 °F 29.5 °F 30.5 in Calm     71 % 0 in
23:42 38.1 °F 29.5 °F 30.5 in Calm     71 % 0 in
23:45 34.5 °F 27.3 °F 30.4 in SSW 1 mph 2 mph 75 % 0 in
23:47 37.9 °F 29.7 °F 30.5 in Calm     72 % 0 in
23:52 37.8 °F 29.1 °F 30.5 in North 1.2 mph   71 % 0 in
23:55 34.5 °F 27.3 °F 30.4 in NW 1 mph 2 mph 75 % 0 in
23:57 37.8 °F 29.1 °F 30.5 in NNE 2.3 mph 2.3 mph 71 % 0 in
Meteo Sesrovires
Elogis d' Weather Underground - 3.75 mb

Guio original per  Jim McMurry - jmcmurry@mwt.net Adaptat per a la plantilla per  Wim van der Kuil - Leuven-Template.eu

Trobareu la nostra informacio del temps tambe a:

Weather Underground

AWEKAS